Terminal Aerodrome Forecast
Issued by NWS

Home | Current Version | Previous Version | Text Only | Print | Product List | Glossary On
Versions: 1 2 3 4 5 6 7 8 9 10 11 12 13 14 15 16 17 18 19 20 21
000
FTUS46 KSTO 092349
TAFMHR
TAF
KMHR 092349Z 1000/1024 15008KT P6SM SCT025 BKN050
      TEMPO 1002/1006 4SM BR OVC025
     FM100700 14010KT 4SM -RA OVC015
     FM101200 16015G25KT 6SM -RA BR OVC015
      AMD NOT SKED=

USA.gov is the U.S. government's official web portal to all federal, state and local government web resources and services.